Stations météo

Publicité
Alcaniz, Espagne (8164): Température de l'air & dewpoint: 01.08.2020 12:00:00 - 07.08.2020 12:00:00 (CEST)Alcaniz, Espagne (8164): Vitesse du vent & gusts: 01.08.2020 12:00:00 - 07.08.2020 12:00:00 (CEST)Alcaniz, Espagne (8164): Direction du vent: 01.08.2020 12:00:00 - 07.08.2020 12:00:00 (CEST)Alcaniz, Espagne (8164): Quantités de précipitations: 01.08.2020 12:00:00 - 07.08.2020 12:00:00 (CEST)
Date & Time tt [°C] td [°C] ff [km/h] ff [knt] fx [km/h] fx [knt] dd rr [mm]
07.08.2020 12:00:00 - - - - - - - -
07.08.2020 11:00:00 26,7 17,8 1 0 11 6 WNW 0,0
07.08.2020 10:00:00 24,3 18,0 4 2 10 5 W 0,0
07.08.2020 09:00:00 21,8 17,6 2 1 8 4 SSW 0,0
07.08.2020 08:00:00 19,6 17,4 0 0 4 2 N -
07.08.2020 07:00:00 18,6 16,4 0 0 3 2 N 0,0
07.08.2020 06:00:00 19,1 16,7 2 1 6 3 NW 0,0
07.08.2020 05:00:00 19,7 16,7 0 0 8 5 ENE 0,0
07.08.2020 04:00:00 20,6 16,4 0 0 0 0 N 0,0
07.08.2020 03:00:00 21,8 16,7 0 0 0 0 N 0,0
07.08.2020 02:00:00 22,6 16,8 0 0 4 2 N -
07.08.2020 01:00:00 24,1 16,6 3 1 5 3 E 0,0
07.08.2020 00:00:00 25,3 17,0 0 0 5 3 ESE 0,0
06.08.2020 23:00:00 27,0 17,2 1 0 9 5 ESE 0,0
06.08.2020 22:00:00 28,7 17,9 2 1 14 8 ESE 0,0
06.08.2020 21:00:00 30,2 17,3 9 5 23 13 E 0,0
06.08.2020 20:00:00 31,5 17,8 15 8 27 14 E -
06.08.2020 19:00:00 33,4 17,5 14 7 23 13 ENE 0,0
06.08.2020 18:00:00 34,3 16,2 13 7 23 12 ENE 0,0
06.08.2020 17:00:00 35,1 15,4 10 5 23 12 ENE 0,0
06.08.2020 16:00:00 34,8 16,1 6 3 19 10 ENE 0,0
06.08.2020 15:00:00 33,7 17,0 5 3 19 10 ENE 0,0
06.08.2020 14:00:00 32,2 18,0 9 5 16 9 ENE -
06.08.2020 13:00:00 30,3 18,4 6 3 16 9 ENE 0,0
06.08.2020 12:00:00 28,5 19,1 8 4 15 8 ENE 0,0
06.08.2020 11:00:00 26,7 17,5 1 1 9 5 NE 0,0
06.08.2020 10:00:00 23,5 17,2 4 2 12 7 NNW 0,0
06.08.2020 09:00:00 20,8 16,8 3 2 6 4 SW 0,0
06.08.2020 08:00:00 18,2 16,6 0 0 0 0 N -
06.08.2020 07:00:00 16,9 15,6 0 0 0 0 N 0,0
06.08.2020 06:00:00 17,6 16,0 0 0 0 0 N 0,0
06.08.2020 05:00:00 18,5 16,6 0 0 0 0 N 0,0
06.08.2020 04:00:00 19,7 17,1 1 1 5 3 NE 0,0
06.08.2020 03:00:00 20,1 16,7 1 1 3 2 ENE 0,0
06.08.2020 02:00:00 21,3 16,7 3 2 5 3 E -
06.08.2020 01:00:00 22,0 16,0 3 2 5 3 ENE 0,0
06.08.2020 00:00:00 22,7 14,2 2 1 5 3 E 0,0
05.08.2020 23:00:00 23,0 12,0 0 0 8 4 NE 0,0
05.08.2020 22:00:00 23,3 10,4 2 1 5 3 E 0,0
05.08.2020 21:00:00 28,8 12,6 0 0 6 4 ENE 0,0
05.08.2020 20:00:00 31,6 13,4 1 1 13 7 ENE -
05.08.2020 19:00:00 31,9 14,0 3 2 17 9 NE 0,0
05.08.2020 18:00:00 31,3 13,6 8 5 17 9 N 0,0
05.08.2020 17:00:00 31,7 15,6 8 4 21 12 N 0,0
05.08.2020 16:00:00 30,9 15,3 9 5 19 10 NE 0,0
05.08.2020 15:00:00 29,9 16,0 11 6 27 15 ENE 0,0
05.08.2020 14:00:00 28,7 16,0 7 4 15 8 ENE -
05.08.2020 13:00:00 26,3 14,4 6 3 17 9 E 0,0
05.08.2020 12:00:00 25,0 14,1 3 1 15 8 NE 0,0
05.08.2020 11:00:00 22,5 13,1 6 3 13 7 NNE 0,0
05.08.2020 10:00:00 21,7 13,4 5 3 12 7 N 0,0
05.08.2020 09:00:00 18,7 12,0 2 1 7 4 SSE 0,0
05.08.2020 08:00:00 14,9 10,6 3 2 8 5 W -
05.08.2020 07:00:00 13,1 9,6 1 0 6 3 SSE 0,0
05.08.2020 06:00:00 14,0 9,4 1 1 5 3 SW 0,0
05.08.2020 05:00:00 14,2 8,8 0 0 7 4 N 0,0
05.08.2020 04:00:00 15,2 9,0 5 3 8 4 W 0,0
05.08.2020 03:00:00 16,8 9,4 1 1 9 5 ESE 0,0
05.08.2020 02:00:00 18,7 10,3 6 3 13 7 WSW -
05.08.2020 01:00:00 20,0 9,8 4 2 16 8 SSW 0,0
05.08.2020 00:00:00 21,4 10,5 5 3 13 7 W 0,0
04.08.2020 23:00:00 22,4 9,2 4 2 17 9 W 0,0
04.08.2020 22:00:00 24,5 9,3 9 5 16 9 WNW 0,0
04.08.2020 21:00:00 26,1 9,8 9 5 22 12 WNW 0,0
04.08.2020 20:00:00 28,2 10,9 11 6 27 15 WNW -
04.08.2020 19:00:00 28,6 11,2 13 7 25 14 NW 0,0
04.08.2020 18:00:00 28,8 11,8 14 8 27 15 WNW 0,0
04.08.2020 17:00:00 28,9 12,3 14 8 32 17 WNW 0,0
04.08.2020 16:00:00 27,9 12,6 10 6 40 22 WNW 0,0
04.08.2020 15:00:00 27,1 13,5 13 7 27 15 WSW 0,0
04.08.2020 14:00:00 25,9 13,8 10 5 30 16 WSW -
04.08.2020 13:00:00 24,1 13,7 10 6 27 15 W 0,0
04.08.2020 12:00:00 22,9 13,4 15 8 33 18 W 0,0
04.08.2020 11:00:00 21,6 13,3 15 8 35 19 WNW 0,0
04.08.2020 10:00:00 20,4 13,4 18 10 33 18 WNW 0,0
04.08.2020 09:00:00 18,3 12,3 14 7 34 18 W 0,0
04.08.2020 08:00:00 16,7 11,4 8 4 12 6 WSW -
04.08.2020 07:00:00 15,0 10,0 5 3 11 6 S 0,0
04.08.2020 06:00:00 16,4 10,5 4 2 22 12 SW 0,0
04.08.2020 05:00:00 16,9 10,0 8 4 22 12 WSW 0,0
04.08.2020 04:00:00 18,0 10,2 13 7 27 15 W 0,0
04.08.2020 03:00:00 18,9 9,9 14 7 33 18 W 0,0
04.08.2020 02:00:00 19,3 10,0 15 8 28 15 W -
04.08.2020 01:00:00 19,8 11,0 11 6 27 14 W 0,0
04.08.2020 00:00:00 20,7 11,6 13 7 39 21 W 0,0
03.08.2020 23:00:00 21,8 11,8 21 11 41 22 WNW 0,0
03.08.2020 22:00:00 22,7 11,1 19 10 38 21 W 0,0
03.08.2020 21:00:00 24,3 11,6 16 9 40 22 WNW 0,0
03.08.2020 20:00:00 26,1 11,8 21 11 46 25 WNW -
03.08.2020 19:00:00 27,4 12,2 20 11 42 23 WNW 0,0
03.08.2020 18:00:00 28,6 12,8 19 10 35 19 NW 0,0
03.08.2020 17:00:00 28,8 12,6 16 9 39 21 WNW 0,0
03.08.2020 16:00:00 28,0 12,7 18 10 39 21 WNW 0,0
03.08.2020 15:00:00 26,8 12,4 18 10 37 20 WNW 0,0
03.08.2020 14:00:00 26,6 13,0 17 9 39 21 WNW -
03.08.2020 13:00:00 24,9 13,2 14 8 36 19 WNW 0,0
03.08.2020 12:00:00 23,3 12,6 18 10 36 19 WNW 0,0
03.08.2020 11:00:00 21,7 12,2 16 9 35 19 W 0,0
03.08.2020 10:00:00 20,0 12,2 19 10 34 19 W 0,0
03.08.2020 09:00:00 19,0 12,5 16 8 31 17 W 0,0
03.08.2020 08:00:00 17,9 11,9 11 6 29 16 W -
03.08.2020 07:00:00 17,6 11,4 8 5 18 10 W 0,0
03.08.2020 06:00:00 18,3 11,1 8 5 24 13 W 0,0
03.08.2020 05:00:00 18,7 11,6 12 6 22 12 W 0,0
03.08.2020 04:00:00 19,1 11,9 11 6 22 12 W 0,0
03.08.2020 03:00:00 18,9 11,4 7 4 28 15 WSW 0,0
03.08.2020 02:00:00 19,2 11,4 15 8 30 16 W -
03.08.2020 01:00:00 19,7 11,4 14 7 33 18 W 0,0
03.08.2020 00:00:00 20,6 11,8 13 7 31 17 W 0,0
02.08.2020 23:00:00 21,3 11,9 16 8 38 20 W 0,0
02.08.2020 22:00:00 22,1 12,1 20 11 41 22 WNW 0,0
02.08.2020 21:00:00 23,2 12,5 17 9 37 20 WNW 0,0
02.08.2020 20:00:00 25,4 13,6 19 10 37 20 WNW -
02.08.2020 19:00:00 28,4 15,0 16 9 32 18 WNW 0,0
02.08.2020 18:00:00 29,7 15,4 15 8 30 16 WNW 0,0
02.08.2020 17:00:00 30,0 16,0 13 7 32 18 NW 0,0
02.08.2020 16:00:00 29,4 15,9 17 9 35 19 WNW 0,0
02.08.2020 15:00:00 29,5 16,6 14 8 32 18 NW 0,0
02.08.2020 14:00:00 28,7 16,6 11 6 26 14 WNW -
02.08.2020 13:00:00 26,5 15,5 12 7 26 14 W 0,0
02.08.2020 12:00:00 25,0 15,3 11 6 23 12 WNW 0,0
02.08.2020 11:00:00 23,3 15,3 9 5 25 14 W 0,0
02.08.2020 10:00:00 22,5 15,8 10 5 24 13 W 0,0
02.08.2020 09:00:00 21,2 16,1 10 5 20 11 W 0,0
02.08.2020 08:00:00 18,2 15,6 2 1 6 3 SW -
02.08.2020 07:00:00 16,6 14,4 1 0 4 2 SSW 0,0
02.08.2020 06:00:00 17,8 14,7 0 0 9 5 SSW 0,0
02.08.2020 05:00:00 19,0 15,1 5 3 13 7 W 0,0
02.08.2020 04:00:00 19,4 14,6 5 3 13 7 WSW 0,0
02.08.2020 03:00:00 20,3 14,9 8 4 16 8 WSW 0,0
02.08.2020 02:00:00 21,1 15,2 6 3 22 12 W -
02.08.2020 01:00:00 22,2 15,5 9 5 31 17 SW 0,0
02.08.2020 00:00:00 22,8 15,2 18 10 35 19 W 0,0
01.08.2020 23:00:00 24,2 15,2 13 7 41 22 W 0,0
01.08.2020 22:00:00 25,9 15,0 22 12 40 22 WNW 0,0
01.08.2020 21:00:00 28,3 15,9 21 11 39 21 WNW 0,0
01.08.2020 20:00:00 32,2 16,9 19 10 29 16 WNW -
01.08.2020 19:00:00 34,5 18,5 11 6 25 13 NW 0,0
01.08.2020 18:00:00 35,4 18,9 8 4 22 12 NW 0,0
01.08.2020 17:00:00 35,6 18,2 10 5 25 14 NW 0,0
01.08.2020 16:00:00 35,2 19,1 6 4 19 10 NNW 0,0
01.08.2020 15:00:00 33,3 20,1 9 5 21 11 W 0,0
01.08.2020 14:00:00 31,5 19,5 8 4 21 11 NNW -
01.08.2020 13:00:00 31,3 19,6 5 3 15 8 NW 0,0
01.08.2020 12:00:00 28,9 19,3 6 4 16 9 W 0,0

tt = Température de l'air
td = dewpoint
ff = Vitesse du vent
fx = gusts
dd = Direction du vent
rr = Quantités de précipitations

stations d'obs. à proximité